createdAt,value
2022-11-29T00:01:19.379Z,23.00
2022-11-29T00:03:46.214Z,24.00
2022-11-29T00:06:16.963Z,27.40
2022-11-29T00:08:43.749Z,24.10
2022-11-29T00:11:14.304Z,28.00
2022-11-29T00:13:40.893Z,24.40
2022-11-29T00:16:12.150Z,23.10
2022-11-29T00:18:38.588Z,23.90
2022-11-29T00:21:09.300Z,25.50
2022-11-29T00:23:36.054Z,27.60
2022-11-29T00:26:07.814Z,24.60
2022-11-29T00:28:36.606Z,24.90
2022-11-29T00:31:19.370Z,24.20
2022-11-29T00:33:46.272Z,26.20
2022-11-29T00:36:13.948Z,25.90
2022-11-29T00:38:41.610Z,24.40
2022-11-29T00:41:09.887Z,19.70
2022-11-29T00:43:36.608Z,22.40
2022-11-29T00:46:04.417Z,26.50
2022-11-29T00:48:31.575Z,28.50
2022-11-29T00:50:58.048Z,24.30
2022-11-29T00:53:24.675Z,25.10
2022-11-29T00:55:52.185Z,27.30
2022-11-29T00:58:20.080Z,26.20
2022-11-29T01:00:47.742Z,25.60
2022-11-29T01:03:15.158Z,23.70
2022-11-29T01:05:42.903Z,24.90
2022-11-29T01:08:11.817Z,22.00
2022-11-29T01:10:38.627Z,22.70
2022-11-29T01:13:05.628Z,27.10
2022-11-29T01:15:32.549Z,23.00
2022-11-29T01:17:59.356Z,23.30
2022-11-29T01:20:26.512Z,29.50
2022-11-29T01:22:52.973Z,24.20
2022-11-29T01:25:19.671Z,28.80
2022-11-29T01:27:46.771Z,28.20
2022-11-29T01:30:14.273Z,29.00
2022-11-29T01:32:40.748Z,28.10
2022-11-29T01:35:07.964Z,24.50
2022-11-29T01:37:34.596Z,21.10
2022-11-29T01:40:01.043Z,21.70
2022-11-29T01:42:27.587Z,25.20
2022-11-29T01:45:15.771Z,27.10
2022-11-29T01:47:46.339Z,28.70
2022-11-29T01:50:13.937Z,26.70
2022-11-29T01:52:41.799Z,26.90
2022-11-29T01:55:10.044Z,21.50
2022-11-29T01:57:41.008Z,24.80
2022-11-29T02:00:16.250Z,28.00
2022-11-29T02:02:57.231Z,32.70
2022-11-29T02:05:25.890Z,25.30
2022-11-29T02:07:57.552Z,23.80
2022-11-29T02:13:44.405Z,26.10
2022-11-29T02:16:47.728Z,25.50
2022-11-29T02:19:51.102Z,24.80
2022-11-29T02:22:53.880Z,25.40
2022-11-29T02:26:05.306Z,24.30
2022-11-29T02:28:59.313Z,24.60
2022-11-29T02:32:09.592Z,24.10
2022-11-29T02:34:53.700Z,25.20
2022-11-29T02:37:59.027Z,26.70
2022-11-29T02:40:56.423Z,26.10
2022-11-29T02:44:07.761Z,26.20
2022-11-29T02:47:03.842Z,26.90
2022-11-29T02:49:52.327Z,25.10
2022-11-29T02:52:46.402Z,23.50
2022-11-29T02:55:34.423Z,25.20
2022-11-29T02:58:16.859Z,25.20
2022-11-29T03:00:59.532Z,23.10
2022-11-29T03:04:04.427Z,23.60
2022-11-29T03:07:24.932Z,22.90
2022-11-29T03:10:14.062Z,26.20
2022-11-29T03:12:46.240Z,25.50
2022-11-29T03:15:29.807Z,25.80
2022-11-29T03:18:55.902Z,26.80
2022-11-29T03:21:22.285Z,26.50
2022-11-29T03:23:57.115Z,27.00
2022-11-29T03:26:47.707Z,26.00
2022-11-29T03:29:32.574Z,26.00
2022-11-29T03:32:52.717Z,28.10
2022-11-29T03:35:43.591Z,29.20
2022-11-29T03:38:32.858Z,27.00
2022-11-29T03:41:31.014Z,27.50
2022-11-29T03:44:09.424Z,25.00
2022-11-29T03:47:12.583Z,27.10
2022-11-29T03:49:49.598Z,23.70
2022-11-29T03:52:24.756Z,27.40
2022-11-29T03:55:23.984Z,27.10
2022-11-29T03:58:19.193Z,25.40
2022-11-29T04:01:26.839Z,24.70
2022-11-29T04:04:17.749Z,24.50
2022-11-29T04:07:22.408Z,30.50
2022-11-29T04:10:22.803Z,20.40
2022-11-29T04:13:24.124Z,20.60
2022-11-29T04:16:56.663Z,22.90
2022-11-29T04:20:08.303Z,23.20
2022-11-29T04:23:18.179Z,24.90
2022-11-29T04:26:50.310Z,23.80
2022-11-29T04:29:55.264Z,22.80
2022-11-29T04:32:48.247Z,27.50
2022-11-29T04:35:42.926Z,21.60
2022-11-29T04:38:23.899Z,26.70
2022-11-29T04:41:20.051Z,29.80
2022-11-29T04:44:04.067Z,29.30
2022-11-29T04:47:11.195Z,25.20
2022-11-29T04:50:00.214Z,24.80
2022-11-29T04:53:11.138Z,26.00
2022-11-29T04:56:01.333Z,26.70
2022-11-29T04:59:20.792Z,29.10
2022-11-29T05:01:57.868Z,25.60
2022-11-29T05:04:53.048Z,30.30
2022-11-29T05:07:49.069Z,28.80
2022-11-29T05:10:44.817Z,23.80
2022-11-29T05:14:01.759Z,25.00
2022-11-29T05:16:53.994Z,28.00
2022-11-29T05:19:37.751Z,30.10
2022-11-29T05:22:38.055Z,25.80
2022-11-29T05:25:22.940Z,25.00
2022-11-29T05:28:20.898Z,18.40
2022-11-29T05:31:18.961Z,26.10
2022-11-29T05:34:41.104Z,24.30
2022-11-29T05:37:35.706Z,31.40
2022-11-29T05:40:22.700Z,32.90
2022-11-29T05:43:29.436Z,24.30
2022-11-29T05:46:08.979Z,25.60
2022-11-29T05:48:50.687Z,28.10
2022-11-29T05:51:40.029Z,29.80
2022-11-29T05:54:40.638Z,28.70
2022-11-29T05:57:42.095Z,27.30
2022-11-29T06:00:12.439Z,25.70
2022-11-29T06:03:12.772Z,26.70
2022-11-29T06:05:49.823Z,33.10
2022-11-29T06:08:38.417Z,28.00
2022-11-29T06:11:17.485Z,27.90
2022-11-29T06:14:13.803Z,28.50
2022-11-29T06:17:38.626Z,29.60
2022-11-29T06:20:41.067Z,24.50
2022-11-29T06:23:24.094Z,26.80
2022-11-29T06:26:19.406Z,30.30
2022-11-29T06:29:22.047Z,31.00
2022-11-29T06:32:03.297Z,31.70
2022-11-29T06:34:56.428Z,32.20
2022-11-29T06:37:31.951Z,29.10
2022-11-29T06:39:58.656Z,29.60
2022-11-29T06:42:25.031Z,34.30
2022-11-29T06:44:52.203Z,31.80
2022-11-29T06:47:36.534Z,35.10
2022-11-29T06:50:34.015Z,28.30
2022-11-29T06:53:16.810Z,29.30
2022-11-29T06:56:21.625Z,27.60
2022-11-29T06:59:26.391Z,31.30
2022-11-29T07:02:37.132Z,29.10
2022-11-29T07:05:25.456Z,27.60
2022-11-29T07:07:57.456Z,30.20
2022-11-29T07:10:30.521Z,30.90
2022-11-29T07:12:57.292Z,28.90
2022-11-29T07:15:24.839Z,35.40
2022-11-29T07:18:42.783Z,33.70
2022-11-29T07:21:27.366Z,28.90
2022-11-29T07:24:16.984Z,28.80
2022-11-29T07:27:04.446Z,42.40
2022-11-29T07:29:43.340Z,38.10
2022-11-29T07:32:26.934Z,38.60
2022-11-29T07:35:21.977Z,31.60
2022-11-29T07:38:06.941Z,31.60
2022-11-29T07:41:07.124Z,35.30
2022-11-29T07:44:23.450Z,32.00
2022-11-29T07:46:49.973Z,35.30
2022-11-29T07:49:16.422Z,39.00
2022-11-29T07:51:43.077Z,33.70
2022-11-29T07:54:14.920Z,32.80
2022-11-29T07:56:41.286Z,31.20
2022-11-29T07:59:12.971Z,33.70
2022-11-29T08:01:40.484Z,32.30
2022-11-29T08:04:08.527Z,37.10
2022-11-29T08:06:36.172Z,35.60
2022-11-29T08:09:04.506Z,39.90
2022-11-29T08:11:30.935Z,38.20
2022-11-29T08:13:59.727Z,40.00
2022-11-29T08:16:26.271Z,37.60
2022-11-29T08:18:53.355Z,35.30
2022-11-29T08:21:19.989Z,34.10
2022-11-29T08:23:48.455Z,37.40
2022-11-29T08:26:17.073Z,40.40
2022-11-29T08:28:43.933Z,35.40
2022-11-29T08:31:13.278Z,43.50
2022-11-29T08:33:43.336Z,32.50
2022-11-29T08:36:20.721Z,35.80
2022-11-29T08:38:48.024Z,36.70
2022-11-29T08:41:16.936Z,36.80
2022-11-29T08:43:44.474Z,34.20
2022-11-29T08:46:18.072Z,37.70
2022-11-29T08:48:48.149Z,38.00
2022-11-29T08:51:15.471Z,31.30
2022-11-29T08:53:41.903Z,32.00
2022-11-29T08:56:41.749Z,33.60
2022-11-29T08:59:07.823Z,32.10
2022-11-29T09:01:34.364Z,34.40
2022-11-29T09:04:03.040Z,31.30
2022-11-29T09:06:45.702Z,34.90
2022-11-29T09:09:13.278Z,34.60
2022-11-29T09:11:39.638Z,31.90
2022-11-29T09:14:08.177Z,31.50
2022-11-29T09:16:38.316Z,30.70
2022-11-29T09:19:05.919Z,31.30
2022-11-29T09:21:39.264Z,37.30
2022-11-29T09:24:14.000Z,33.40
2022-11-29T09:26:42.033Z,34.50
2022-11-29T09:29:09.220Z,29.50
2022-11-29T09:31:37.813Z,26.60
2022-11-29T09:34:04.231Z,28.20
2022-11-29T09:36:31.538Z,30.80
2022-11-29T09:39:02.512Z,27.40
2022-11-29T09:41:48.674Z,28.90
2022-11-29T09:44:39.828Z,27.80
2022-11-29T09:47:47.177Z,29.70
2022-11-29T09:50:28.174Z,25.60
2022-11-29T09:53:25.940Z,29.10
2022-11-29T09:56:15.516Z,33.00
2022-11-29T09:58:51.815Z,30.90
2022-11-29T10:01:26.266Z,25.30
2022-11-29T10:03:59.725Z,24.10
2022-11-29T10:06:41.010Z,26.50
2022-11-29T10:09:37.244Z,29.20
2022-11-29T10:12:39.404Z,22.30
2022-11-29T10:15:17.008Z,26.20
2022-11-29T10:17:51.730Z,26.60
2022-11-29T10:20:24.344Z,28.80
2022-11-29T10:23:19.919Z,32.70
2022-11-29T10:25:54.035Z,48.90
2022-11-29T10:28:31.414Z,55.80
2022-11-29T10:31:14.647Z,81.60
2022-11-29T10:33:45.346Z,69.00
2022-11-29T10:36:32.863Z,97.30
2022-11-29T10:39:29.635Z,81.80
2022-11-29T10:42:01.476Z,52.50
2022-11-29T10:44:29.048Z,39.60
2022-11-29T10:46:56.547Z,39.10
2022-11-29T10:49:31.368Z,33.00
2022-11-29T10:51:57.881Z,30.50
2022-11-29T10:54:40.116Z,38.50
2022-11-29T10:57:24.826Z,32.30
2022-11-29T11:00:06.822Z,31.20
2022-11-29T11:02:34.345Z,31.30
2022-11-29T11:05:01.538Z,27.90
2022-11-29T11:07:36.169Z,31.50
2022-11-29T11:10:28.704Z,33.00
2022-11-29T11:13:18.814Z,31.30
2022-11-29T11:15:45.423Z,31.70
2022-11-29T11:18:22.411Z,32.00
2022-11-29T11:20:59.391Z,35.10
2022-11-29T11:23:32.700Z,35.60
2022-11-29T11:26:07.503Z,40.30
2022-11-29T11:28:52.957Z,39.00
2022-11-29T11:31:38.046Z,44.10
2022-11-29T11:34:38.366Z,40.60
2022-11-29T11:37:27.648Z,31.30
2022-11-29T11:40:20.861Z,37.30
2022-11-29T11:42:47.471Z,33.80
2022-11-29T11:45:13.788Z,33.10
2022-11-29T11:47:51.502Z,30.10
2022-11-29T11:50:43.695Z,32.40
2022-11-29T11:53:36.532Z,36.50
2022-11-29T11:56:08.897Z,40.00
2022-11-29T11:58:44.064Z,34.50
2022-11-29T12:01:22.895Z,29.50
2022-11-29T12:04:06.298Z,35.60
2022-11-29T12:06:54.592Z,40.10
2022-11-29T12:09:46.098Z,41.20
2022-11-29T12:12:17.946Z,42.50
2022-11-29T12:15:03.507Z,46.80
2022-11-29T12:17:51.482Z,40.90
2022-11-29T12:20:26.896Z,31.80
2022-11-29T12:22:54.104Z,29.80
2022-11-29T12:25:29.387Z,28.80
2022-11-29T12:27:56.156Z,29.00
2022-11-29T12:30:22.535Z,27.30
2022-11-29T12:33:27.534Z,27.90
2022-11-29T12:36:31.635Z,27.50
2022-11-29T12:39:16.294Z,31.70
2022-11-29T12:42:10.440Z,30.10
2022-11-29T12:48:34.856Z,36.90
2022-11-29T12:51:55.884Z,33.70
2022-11-29T12:54:49.769Z,27.10
2022-11-29T12:57:31.534Z,24.20
2022-11-29T13:00:21.168Z,28.20
2022-11-29T13:03:06.729Z,38.10
2022-11-29T13:05:59.134Z,27.20
2022-11-29T13:09:01.061Z,29.20
2022-11-29T13:11:37.611Z,27.10
2022-11-29T13:14:50.672Z,32.00
2022-11-29T13:17:55.939Z,35.00
2022-11-29T13:20:50.772Z,32.10
2022-11-29T13:24:12.193Z,32.70
2022-11-29T13:26:40.488Z,32.40
2022-11-29T13:29:13.687Z,31.40
2022-11-29T13:31:44.605Z,27.10
2022-11-29T13:34:26.601Z,25.90
2022-11-29T13:37:23.355Z,24.90
2022-11-29T13:40:03.499Z,29.70
2022-11-29T13:43:01.201Z,23.80
2022-11-29T13:45:43.887Z,29.30
2022-11-29T13:48:49.822Z,27.00
2022-11-29T13:51:37.616Z,23.90
2022-11-29T13:54:30.359Z,27.40
2022-11-29T13:57:09.605Z,29.00
2022-11-29T13:59:45.734Z,28.60
2022-11-29T14:02:31.422Z,25.00
2022-11-29T14:04:58.459Z,28.50
2022-11-29T14:07:24.873Z,33.30
2022-11-29T14:10:06.805Z,29.70
2022-11-29T14:14:57.005Z,31.40
2022-11-29T14:17:49.867Z,30.20
2022-11-29T14:20:22.523Z,28.40
2022-11-29T14:23:04.342Z,26.80
2022-11-29T14:25:52.101Z,28.40
2022-11-29T14:28:21.762Z,31.20
2022-11-29T14:30:58.237Z,30.10
2022-11-29T14:33:47.023Z,29.40
2022-11-29T14:36:45.611Z,30.40
2022-11-29T14:39:30.035Z,26.60
2022-11-29T14:42:19.066Z,30.50
2022-11-29T14:44:58.320Z,28.20
2022-11-29T14:47:26.946Z,30.00
2022-11-29T14:49:57.583Z,25.90
2022-11-29T14:52:35.871Z,31.00
2022-11-29T14:55:14.115Z,29.60
2022-11-29T14:57:49.836Z,29.10
2022-11-29T15:00:24.060Z,29.80
2022-11-29T15:03:04.086Z,31.90
2022-11-29T15:05:38.511Z,33.30
2022-11-29T15:08:56.591Z,34.10
2022-11-29T15:11:37.034Z,44.90
2022-11-29T15:14:46.991Z,43.60
2022-11-29T15:17:38.755Z,42.30
2022-11-29T15:20:51.907Z,41.70
2022-11-29T15:23:19.117Z,35.50
2022-11-29T15:25:54.902Z,34.60
2022-11-29T15:28:29.523Z,32.90
2022-11-29T15:31:09.212Z,30.00
2022-11-29T15:33:40.608Z,31.10
2022-11-29T15:36:16.011Z,35.90
2022-11-29T15:38:50.144Z,36.20
2022-11-29T15:41:35.317Z,35.60
2022-11-29T15:44:06.174Z,40.40
2022-11-29T15:46:35.505Z,38.50
2022-11-29T15:49:28.010Z,39.60
2022-11-29T15:52:01.915Z,38.80
2022-11-29T15:54:36.021Z,38.90
2022-11-29T15:57:17.948Z,38.20
2022-11-29T15:59:53.155Z,35.80
2022-11-29T16:02:26.185Z,33.70
2022-11-29T16:05:00.026Z,35.00
2022-11-29T16:07:32.286Z,36.20
2022-11-29T16:10:18.253Z,37.80
2022-11-29T16:13:01.135Z,30.60
2022-11-29T16:15:35.924Z,30.40
2022-11-29T16:18:14.830Z,30.70
2022-11-29T16:20:41.403Z,32.10
2022-11-29T16:23:07.802Z,30.50
2022-11-29T16:25:47.176Z,34.30
2022-11-29T16:28:13.704Z,33.70
2022-11-29T16:30:42.642Z,33.10
2022-11-29T16:33:21.387Z,36.30
2022-11-29T16:35:48.487Z,31.00
2022-11-29T16:38:23.669Z,34.50
2022-11-29T16:41:22.486Z,38.70
2022-11-29T16:43:54.242Z,42.90
2022-11-29T16:46:20.593Z,38.10
2022-11-29T16:48:56.314Z,39.00
2022-11-29T16:51:35.784Z,43.50
2022-11-29T16:54:34.050Z,43.60
2022-11-29T16:57:06.191Z,42.20
2022-11-29T16:59:35.161Z,39.30
2022-11-29T17:02:01.585Z,39.60
2022-11-29T17:04:28.056Z,37.70
2022-11-29T17:06:56.320Z,39.20
2022-11-29T17:09:30.855Z,29.70
2022-11-29T17:12:00.870Z,39.30
2022-11-29T17:14:29.120Z,37.70
2022-11-29T17:16:55.760Z,41.10
2022-11-29T17:19:23.767Z,39.30
2022-11-29T17:21:52.066Z,38.10
2022-11-29T17:24:21.339Z,35.00
2022-11-29T17:26:47.729Z,30.10
2022-11-29T17:29:16.339Z,41.40
2022-11-29T17:31:45.117Z,51.30
2022-11-29T17:34:12.250Z,48.30
2022-11-29T17:36:38.851Z,30.30
2022-11-29T17:39:06.012Z,35.20
2022-11-29T17:41:33.108Z,37.50
2022-11-29T17:44:00.099Z,33.10
2022-11-29T17:46:31.680Z,35.00
2022-11-29T17:49:00.965Z,35.40
2022-11-29T17:54:14.288Z,38.80
2022-11-29T17:56:40.744Z,32.10
2022-11-29T17:59:07.199Z,31.10
2022-11-29T18:01:36.064Z,32.20
2022-11-29T18:04:06.149Z,34.10
2022-11-29T18:06:40.220Z,33.40
2022-11-29T18:09:10.021Z,26.50
2022-11-29T18:11:48.533Z,22.40
2022-11-29T18:14:20.500Z,26.20
2022-11-29T18:16:47.121Z,27.70
2022-11-29T18:19:18.597Z,28.10
2022-11-29T18:21:45.644Z,28.40
2022-11-29T18:24:12.364Z,28.10
2022-11-29T18:26:39.980Z,33.90
2022-11-29T18:29:07.789Z,35.90
2022-11-29T18:31:38.050Z,34.40
2022-11-29T18:34:09.377Z,33.10
2022-11-29T18:36:42.946Z,36.20
2022-11-29T18:39:16.220Z,35.20
2022-11-29T18:41:46.546Z,29.20
2022-11-29T18:44:15.670Z,30.40
2022-11-29T18:46:44.987Z,32.90
2022-11-29T18:49:15.573Z,38.30
2022-11-29T18:51:45.044Z,34.30
2022-11-29T18:54:13.697Z,32.90
2022-11-29T18:56:41.256Z,37.00
2022-11-29T18:59:16.569Z,35.20
2022-11-29T19:01:45.931Z,34.90
2022-11-29T19:04:16.448Z,37.90
2022-11-29T19:06:43.873Z,39.40
2022-11-29T19:09:17.291Z,31.70
2022-11-29T19:11:43.989Z,30.20
2022-11-29T19:14:12.674Z,36.60
2022-11-29T19:16:43.342Z,32.40
2022-11-29T19:19:09.924Z,31.20
2022-11-29T19:21:37.186Z,26.60
2022-11-29T19:24:13.089Z,30.30
2022-11-29T19:26:40.997Z,34.20
2022-11-29T19:29:07.433Z,35.40
2022-11-29T19:31:33.910Z,43.40
2022-11-29T19:34:00.308Z,38.30
2022-11-29T19:36:30.349Z,46.70
2022-11-29T19:39:00.064Z,44.50
2022-11-29T19:41:30.238Z,34.40
2022-11-29T19:44:01.408Z,38.20
2022-11-29T19:46:31.726Z,40.80
2022-11-29T19:49:01.471Z,38.80
2022-11-29T19:51:30.469Z,43.30
2022-11-29T19:54:01.207Z,38.20
2022-11-29T19:56:29.380Z,42.10
2022-11-29T19:58:56.173Z,43.30
2022-11-29T20:01:36.084Z,38.30
2022-11-29T20:04:06.494Z,38.80
2022-11-29T20:06:32.913Z,40.20
2022-11-29T20:08:59.406Z,38.70
2022-11-29T20:11:26.648Z,36.70
2022-11-29T20:14:13.192Z,42.80
2022-11-29T20:16:39.752Z,38.30
2022-11-29T20:19:13.546Z,35.20
2022-11-29T20:21:43.962Z,32.30
2022-11-29T20:24:12.967Z,27.90
2022-11-29T20:26:43.143Z,32.80
2022-11-29T20:29:10.623Z,39.30
2022-11-29T20:31:43.157Z,35.90
2022-11-29T20:34:14.586Z,35.50
2022-11-29T20:37:18.509Z,35.70
2022-11-29T20:40:01.010Z,40.80
2022-11-29T20:43:11.555Z,43.10
2022-11-29T20:45:38.322Z,43.10
2022-11-29T20:48:19.055Z,43.90
2022-11-29T20:50:58.568Z,43.90
2022-11-29T20:53:41.212Z,45.90
2022-11-29T20:56:10.548Z,44.00
2022-11-29T20:58:39.263Z,41.10
2022-11-29T21:01:07.420Z,44.70
2022-11-29T21:03:34.131Z,40.10
2022-11-29T21:06:03.699Z,40.70
2022-11-29T21:08:30.301Z,42.70
2022-11-29T21:11:10.792Z,44.70
2022-11-29T21:13:38.203Z,44.00
2022-11-29T21:16:05.684Z,49.80
2022-11-29T21:18:32.983Z,43.60
2022-11-29T21:21:25.078Z,46.00
2022-11-29T21:24:33.026Z,29.20
2022-11-29T21:27:00.304Z,37.60
2022-11-29T21:29:27.084Z,37.80
2022-11-29T21:31:55.081Z,43.40
2022-11-29T21:34:21.994Z,60.20
2022-11-29T21:36:56.995Z,43.10
2022-11-29T21:39:31.255Z,48.80
2022-11-29T21:41:57.963Z,59.90
2022-11-29T21:44:24.412Z,74.50
2022-11-29T21:46:50.840Z,49.40
2022-11-29T21:49:17.316Z,40.80
2022-11-29T21:51:43.792Z,48.20
2022-11-29T21:54:10.235Z,40.10
2022-11-29T21:56:36.680Z,44.20
2022-11-29T21:59:03.429Z,34.20
2022-11-29T22:01:29.956Z,32.20
2022-11-29T22:03:56.764Z,29.50
2022-11-29T22:06:24.315Z,38.20
2022-11-29T22:08:50.836Z,39.70
2022-11-29T22:11:30.695Z,47.90
2022-11-29T22:14:18.953Z,39.30
2022-11-29T22:16:52.397Z,34.90
2022-11-29T22:19:36.117Z,35.60
2022-11-29T22:22:06.599Z,35.80
2022-11-29T22:24:36.100Z,37.00
2022-11-29T22:27:02.635Z,32.70
2022-11-29T22:29:29.512Z,30.10
2022-11-29T22:31:56.776Z,28.90
2022-11-29T22:34:25.221Z,28.10
2022-11-29T22:36:51.651Z,28.40
2022-11-29T22:39:18.253Z,28.40
2022-11-29T22:41:47.049Z,30.50
2022-11-29T22:44:17.205Z,35.30
2022-11-29T22:46:43.716Z,32.50
2022-11-29T22:49:10.607Z,31.50
2022-11-29T22:51:38.479Z,32.20
2022-11-29T22:54:09.137Z,28.60
2022-11-29T22:56:41.275Z,30.70
2022-11-29T22:59:08.786Z,26.30
2022-11-29T23:01:38.935Z,31.40
2022-11-29T23:04:08.106Z,24.40
2022-11-29T23:06:38.848Z,22.20
2022-11-29T23:09:16.785Z,29.10
2022-11-29T23:11:45.472Z,28.60
2022-11-29T23:14:12.273Z,29.30
2022-11-29T23:16:38.936Z,28.70
2022-11-29T23:19:05.492Z,33.20
2022-11-29T23:21:35.239Z,27.80
2022-11-29T23:24:02.534Z,21.20
2022-11-29T23:26:39.046Z,26.10
2022-11-29T23:29:18.880Z,22.60
2022-11-29T23:31:46.904Z,23.30
2022-11-29T23:34:13.762Z,25.00
2022-11-29T23:36:40.424Z,23.60
2022-11-29T23:39:07.457Z,27.10
2022-11-29T23:41:36.247Z,28.40
2022-11-29T23:44:05.364Z,28.60
2022-11-29T23:46:32.431Z,28.00
2022-11-29T23:48:58.823Z,27.40
2022-11-29T23:51:25.186Z,34.10
2022-11-29T23:53:53.468Z,32.40
2022-11-29T23:56:21.822Z,32.40
2022-11-29T23:58:48.531Z,35.00
